createdAt,value
2023-05-09T00:05:13.606Z,10
2023-05-09T00:10:29.819Z,13
2023-05-09T00:15:46.171Z,14
2023-05-09T00:21:02.560Z,15
2023-05-09T00:26:18.905Z,15
2023-05-09T00:31:35.331Z,10
2023-05-09T00:36:51.648Z,15
2023-05-09T00:42:08.031Z,14
2023-05-09T00:47:24.456Z,12
2023-05-09T00:52:40.782Z,14
2023-05-09T00:57:57.088Z,11
2023-05-09T01:03:13.525Z,11
2023-05-09T01:08:29.797Z,14
2023-05-09T01:13:46.139Z,12
2023-05-09T01:19:02.493Z,13
2023-05-09T01:24:18.830Z,15
2023-05-09T01:29:35.200Z,12
2023-05-09T01:34:51.554Z,14
2023-05-09T01:40:07.917Z,13
2023-05-09T01:45:24.292Z,12
2023-05-09T01:50:40.658Z,13
2023-05-09T01:55:57.005Z,14
2023-05-09T02:01:13.420Z,16
2023-05-09T02:06:29.724Z,16
2023-05-09T02:11:46.102Z,12
2023-05-09T02:17:02.538Z,12
2023-05-09T02:22:18.813Z,12
2023-05-09T02:27:35.173Z,15
2023-05-09T02:32:51.565Z,11
2023-05-09T02:38:07.882Z,16
2023-05-09T02:43:24.264Z,12
2023-05-09T02:48:40.617Z,13
2023-05-09T02:53:56.969Z,14
2023-05-09T02:59:13.348Z,15
2023-05-09T03:04:29.702Z,13
2023-05-09T03:09:46.093Z,17
2023-05-09T03:15:02.440Z,16
2023-05-09T03:20:18.801Z,14
2023-05-09T03:25:35.191Z,14
2023-05-09T03:30:51.520Z,17
2023-05-09T03:36:07.865Z,15
2023-05-09T03:41:24.226Z,13
2023-05-09T03:46:40.650Z,11
2023-05-09T03:51:56.969Z,13
2023-05-09T03:57:13.306Z,15
2023-05-09T04:02:29.733Z,13
2023-05-09T04:07:46.022Z,14
2023-05-09T04:13:02.415Z,14
2023-05-09T04:18:18.759Z,13
2023-05-09T04:23:35.124Z,17
2023-05-09T04:28:51.516Z,15
2023-05-09T04:34:07.888Z,13
2023-05-09T04:39:24.254Z,13
2023-05-09T04:44:40.631Z,14
2023-05-09T04:49:56.986Z,14
2023-05-09T04:55:13.527Z,17
2023-05-09T05:00:29.731Z,15
2023-05-09T05:05:46.175Z,15
2023-05-09T05:11:02.475Z,14
2023-05-09T05:16:18.859Z,16
2023-05-09T05:21:35.209Z,17
2023-05-09T05:26:51.572Z,16
2023-05-09T05:32:07.954Z,16
2023-05-09T05:37:24.310Z,18
2023-05-09T05:42:40.698Z,18
2023-05-09T05:47:57.083Z,14
2023-05-09T05:53:13.450Z,16
2023-05-09T05:58:29.821Z,16
2023-05-09T06:03:46.238Z,15
2023-05-09T06:09:02.538Z,19
2023-05-09T06:14:18.924Z,16
2023-05-09T06:19:35.276Z,17
2023-05-09T06:24:51.628Z,15
2023-05-09T06:30:23.814Z,15
2023-05-09T06:35:24.372Z,15
2023-05-09T06:40:41.444Z,13
2023-05-09T06:45:57.811Z,16
2023-05-09T06:51:13.882Z,19
2023-05-09T06:56:30.225Z,15
2023-05-09T07:01:46.354Z,14
2023-05-09T07:07:02.675Z,13
2023-05-09T07:12:19.038Z,12
2023-05-09T07:17:35.415Z,15
2023-05-09T07:22:51.873Z,16
2023-05-09T07:28:08.134Z,15
2023-05-09T07:33:24.520Z,14
2023-05-09T07:38:40.878Z,15
2023-05-09T07:43:57.212Z,14
2023-05-09T07:49:13.622Z,16
2023-05-09T07:54:29.953Z,16
2023-05-09T07:59:46.321Z,13
2023-05-09T08:05:02.657Z,15
2023-05-09T08:10:19.136Z,15
2023-05-09T08:15:35.412Z,15
2023-05-09T08:20:51.755Z,16
2023-05-09T08:26:08.102Z,14
2023-05-09T08:31:24.519Z,11
2023-05-09T08:36:40.829Z,13
2023-05-09T08:41:57.201Z,13
2023-05-09T08:47:13.556Z,12
2023-05-09T08:52:29.900Z,13
2023-05-09T08:57:46.241Z,13
2023-05-09T09:03:02.688Z,16
2023-05-09T09:08:18.954Z,13
2023-05-09T09:13:35.357Z,12
2023-05-09T09:18:51.655Z,11
2023-05-09T09:24:08.011Z,12
2023-05-09T09:29:24.379Z,14
2023-05-09T09:34:40.752Z,12
2023-05-09T09:39:57.193Z,12
2023-05-09T09:45:13.472Z,13
2023-05-09T09:50:29.816Z,14
2023-05-09T09:55:46.151Z,11
2023-05-09T10:01:02.695Z,13
2023-05-09T10:06:18.908Z,15
2023-05-09T10:11:35.254Z,12
2023-05-09T10:16:51.677Z,12
2023-05-09T10:22:07.969Z,13
2023-05-09T10:27:24.321Z,13
2023-05-09T10:32:40.747Z,14
2023-05-09T10:37:57.023Z,12
2023-05-09T10:43:13.435Z,10
2023-05-09T10:48:29.712Z,10
2023-05-09T10:53:46.085Z,8
2023-05-09T10:59:02.436Z,9
2023-05-09T11:04:18.789Z,9
2023-05-09T11:09:35.207Z,9
2023-05-09T11:14:51.545Z,8
2023-05-09T11:20:07.912Z,8
2023-05-09T11:25:24.239Z,9
2023-05-09T11:30:40.648Z,8
2023-05-09T11:35:56.937Z,8
2023-05-09T11:41:13.269Z,7
2023-05-09T11:46:29.692Z,9
2023-05-09T11:51:45.944Z,8
2023-05-09T11:57:02.288Z,10
2023-05-09T12:02:18.709Z,8
2023-05-09T12:07:34.968Z,8
2023-05-09T12:12:51.362Z,8
2023-05-09T12:18:07.865Z,9
2023-05-09T12:23:24.044Z,7
2023-05-09T12:28:40.384Z,8
2023-05-09T12:33:56.780Z,8
2023-05-09T12:39:13.152Z,6
2023-05-09T12:44:30.198Z,7
2023-05-09T12:49:45.843Z,7
2023-05-09T12:55:02.182Z,6
2023-05-09T13:00:18.543Z,5
2023-05-09T13:05:34.881Z,5
2023-05-09T13:10:57.840Z,6
2023-05-09T13:16:09.419Z,5
2023-05-09T13:21:23.909Z,4
2023-05-09T13:26:40.272Z,4
2023-05-09T13:31:56.606Z,6
2023-05-09T13:37:12.942Z,5
2023-05-09T13:42:29.304Z,6
2023-05-09T13:47:45.630Z,4
2023-05-09T13:53:02.003Z,5
2023-05-09T13:58:18.314Z,4
2023-05-09T14:03:34.656Z,5
2023-05-09T14:08:50.985Z,4
2023-05-09T14:14:21.687Z,4
2023-05-09T14:19:38.018Z,6
2023-05-09T14:24:54.366Z,5
2023-05-09T14:30:10.745Z,6
2023-05-09T14:35:27.105Z,6
2023-05-09T14:40:43.441Z,6
2023-05-09T14:45:59.790Z,5
2023-05-09T14:51:16.136Z,5
2023-05-09T14:56:32.493Z,5
2023-05-09T15:01:48.885Z,4
2023-05-09T15:07:05.191Z,4
2023-05-09T15:12:21.549Z,6
2023-05-09T15:17:37.885Z,3
2023-05-09T15:22:54.276Z,6
2023-05-09T15:28:10.570Z,4
2023-05-09T15:33:26.930Z,4
2023-05-09T15:38:43.285Z,4
2023-05-09T15:43:59.606Z,5
2023-05-09T15:49:15.980Z,6
2023-05-09T15:54:32.344Z,4
2023-05-09T15:59:48.674Z,5
2023-05-09T16:05:05.227Z,4
2023-05-09T16:10:21.396Z,4
2023-05-09T16:15:37.728Z,6
2023-05-09T16:20:54.063Z,5
2023-05-09T16:26:10.404Z,5
2023-05-09T16:31:26.938Z,4
2023-05-09T16:36:43.101Z,4
2023-05-09T16:41:59.468Z,5
2023-05-09T16:47:15.806Z,5
2023-05-09T16:52:32.185Z,6
2023-05-09T16:57:48.514Z,5
2023-05-09T17:03:04.892Z,5
2023-05-09T17:08:21.222Z,5
2023-05-09T17:13:37.598Z,6
2023-05-09T17:18:53.906Z,6
2023-05-09T17:24:10.267Z,6
2023-05-09T17:29:26.619Z,6
2023-05-09T17:34:42.952Z,7
2023-05-09T17:39:59.286Z,3
2023-05-09T17:45:15.630Z,5
2023-05-09T17:50:31.991Z,5
2023-05-09T17:55:48.324Z,5
2023-05-09T18:01:04.691Z,5
2023-05-09T18:06:21.045Z,6
2023-05-09T18:11:37.407Z,6
2023-05-09T18:16:54.759Z,5
2023-05-09T18:22:10.103Z,4
2023-05-09T18:27:26.445Z,6
2023-05-09T18:32:42.897Z,6
2023-05-09T18:37:59.179Z,13
2023-05-09T18:43:15.548Z,8
2023-05-09T18:48:31.879Z,4
2023-05-09T18:53:48.235Z,5
2023-05-09T18:59:04.612Z,6
2023-05-09T19:04:21.005Z,8
2023-05-09T19:09:37.340Z,4
2023-05-09T19:14:53.720Z,5
2023-05-09T19:20:10.064Z,5
2023-05-09T19:25:26.421Z,7
2023-05-09T19:30:42.853Z,6
2023-05-09T19:35:59.187Z,4
2023-05-09T19:41:15.560Z,5
2023-05-09T19:46:31.962Z,5
2023-05-09T19:51:48.272Z,6
2023-05-09T19:57:04.599Z,7
2023-05-09T20:02:20.952Z,5
2023-05-09T20:07:37.305Z,6
2023-05-09T20:12:53.695Z,6
2023-05-09T20:18:10.120Z,6
2023-05-09T20:23:26.371Z,6
2023-05-09T20:28:42.728Z,5
2023-05-09T20:33:59.070Z,4
2023-05-09T20:39:15.449Z,5
2023-05-09T20:44:31.773Z,5
2023-05-09T20:49:48.128Z,5
2023-05-09T20:55:04.495Z,5
2023-05-09T21:00:21.054Z,5
2023-05-09T21:05:37.193Z,6
2023-05-09T21:10:53.577Z,9
2023-05-09T21:16:09.922Z,6
2023-05-09T21:21:26.284Z,7
2023-05-09T21:26:42.637Z,6
2023-05-09T21:31:59.007Z,5
2023-05-09T21:37:15.360Z,5
2023-05-09T21:42:31.742Z,5
2023-05-09T21:47:48.181Z,5
2023-05-09T21:53:04.445Z,5
2023-05-09T21:58:20.796Z,6
2023-05-09T22:03:37.289Z,7
2023-05-09T22:08:53.515Z,6
2023-05-09T22:14:09.872Z,7
2023-05-09T22:19:26.238Z,8
2023-05-09T22:24:42.602Z,6
2023-05-09T22:29:58.951Z,4
2023-05-09T22:35:15.294Z,4
2023-05-09T22:40:31.657Z,5
2023-05-09T22:45:48.047Z,5
2023-05-09T22:51:04.385Z,5
2023-05-09T22:56:20.713Z,5
2023-05-09T23:01:37.123Z,7
2023-05-09T23:06:53.424Z,6
2023-05-09T23:12:09.787Z,5
2023-05-09T23:17:26.292Z,6
2023-05-09T23:22:42.575Z,4
2023-05-09T23:27:58.925Z,6
2023-05-09T23:33:15.297Z,5
2023-05-09T23:38:31.650Z,5
2023-05-09T23:43:48.080Z,5
2023-05-09T23:49:04.429Z,5
2023-05-09T23:54:20.771Z,5
2023-05-09T23:59:37.151Z,5
